createdAt,value
2022-12-17T00:02:34.767Z,-1.66
2022-12-17T00:05:20.223Z,-1.61
2022-12-17T00:08:05.458Z,-1.57
2022-12-17T00:10:51.039Z,-1.61
2022-12-17T00:13:38.342Z,-1.65
2022-12-17T00:16:25.017Z,-1.63
2022-12-17T00:19:11.902Z,-1.58
2022-12-17T00:21:57.131Z,-1.52
2022-12-17T00:24:42.409Z,-1.61
2022-12-17T00:27:39.383Z,-1.65
2022-12-17T00:30:25.789Z,-1.62
2022-12-17T00:33:11.211Z,-1.60
2022-12-17T00:35:58.009Z,-1.66
2022-12-17T00:38:43.047Z,-1.60
2022-12-17T00:41:28.327Z,-1.56
2022-12-17T00:44:14.247Z,-1.48
2022-12-17T00:46:59.417Z,-1.48
2022-12-17T00:49:44.562Z,-1.50
2022-12-17T00:52:31.273Z,-1.48
2022-12-17T00:55:16.858Z,-1.45
2022-12-17T00:58:10.825Z,-1.46
2022-12-17T01:00:56.385Z,-1.56
2022-12-17T01:03:55.149Z,-1.62
2022-12-17T01:06:44.035Z,-1.50
2022-12-17T01:09:30.947Z,-1.51
2022-12-17T01:12:16.370Z,-1.53
2022-12-17T01:15:01.771Z,-1.54
2022-12-17T01:17:47.243Z,-1.44
2022-12-17T01:20:32.886Z,-1.37
2022-12-17T01:23:18.144Z,-1.40
2022-12-17T01:26:12.819Z,-1.39
2022-12-17T01:28:58.535Z,-1.38
2022-12-17T01:31:44.261Z,-1.32
2022-12-17T01:34:30.021Z,-1.36
2022-12-17T01:37:15.423Z,-1.34
2022-12-17T01:40:00.792Z,-1.40
2022-12-17T01:42:56.577Z,-1.38
2022-12-17T01:45:41.695Z,-1.37
2022-12-17T01:48:32.136Z,-1.42
2022-12-17T01:51:14.386Z,-1.43
2022-12-17T01:54:05.079Z,-1.38
2022-12-17T01:56:50.901Z,-1.34
2022-12-17T01:59:45.876Z,-1.35
2022-12-17T02:02:31.468Z,-1.31
2022-12-17T02:05:17.287Z,-1.27
2022-12-17T02:08:13.465Z,-1.22
2022-12-17T02:11:05.007Z,-1.33
2022-12-17T02:13:55.691Z,-1.38
2022-12-17T02:16:49.409Z,-1.27
2022-12-17T02:19:49.232Z,-1.38
2022-12-17T02:22:46.364Z,-1.33
2022-12-17T02:25:40.851Z,-1.33
2022-12-17T02:28:28.425Z,-1.28
2022-12-17T02:31:14.886Z,-1.32
2022-12-17T02:34:00.531Z,-1.31
2022-12-17T02:36:46.310Z,-1.32
2022-12-17T02:39:31.734Z,-1.37
2022-12-17T02:42:17.777Z,-1.36
2022-12-17T02:45:05.124Z,-1.32
2022-12-17T02:47:50.545Z,-1.36
2022-12-17T02:50:36.410Z,-1.41
2022-12-17T02:53:22.907Z,-1.38
2022-12-17T02:56:07.529Z,-1.45
2022-12-17T02:58:52.735Z,-1.38
2022-12-17T03:01:39.874Z,-1.35
2022-12-17T03:04:25.384Z,-1.42
2022-12-17T03:07:12.678Z,-1.44
2022-12-17T03:09:58.328Z,-1.56
2022-12-17T03:12:43.533Z,-1.53
2022-12-17T03:15:43.441Z,-1.54
2022-12-17T03:18:30.135Z,-1.49
2022-12-17T03:21:15.117Z,-1.53
2022-12-17T03:24:05.831Z,-1.53
2022-12-17T03:26:51.390Z,-1.49
2022-12-17T03:29:51.079Z,-1.51
2022-12-17T03:32:36.642Z,-1.45
2022-12-17T03:35:23.606Z,-1.45
2022-12-17T03:38:09.146Z,-1.54
2022-12-17T03:40:54.438Z,-1.46
2022-12-17T03:43:39.780Z,-1.54
2022-12-17T03:46:25.614Z,-1.54
2022-12-17T03:49:11.071Z,-1.59
2022-12-17T03:51:57.713Z,-1.62
2022-12-17T03:54:42.929Z,-1.61
2022-12-17T03:57:28.260Z,-1.68
2022-12-17T04:00:15.292Z,-1.70
2022-12-17T04:03:00.518Z,-1.74
2022-12-17T04:05:46.223Z,-1.86
2022-12-17T04:08:33.134Z,-1.82
2022-12-17T04:11:20.677Z,-1.79
2022-12-17T04:14:05.934Z,-1.82
2022-12-17T04:16:51.387Z,-1.82
2022-12-17T04:19:36.515Z,-1.94
2022-12-17T04:22:21.883Z,-1.85
2022-12-17T04:25:08.510Z,-1.88
2022-12-17T04:27:53.885Z,-1.92
2022-12-17T04:30:39.231Z,-1.92
2022-12-17T04:33:24.575Z,-1.89
2022-12-17T04:36:09.819Z,-1.92
2022-12-17T04:38:55.176Z,-1.83
2022-12-17T04:41:41.946Z,-1.86
2022-12-17T04:44:26.472Z,-1.96
2022-12-17T04:47:16.978Z,-1.89
2022-12-17T04:50:02.394Z,-1.82
2022-12-17T04:52:47.839Z,-1.83
2022-12-17T04:55:33.009Z,-1.75
2022-12-17T04:58:22.492Z,-1.74
2022-12-17T05:01:10.549Z,-1.71
2022-12-17T05:03:56.091Z,-1.64
2022-12-17T05:06:41.538Z,-1.76
2022-12-17T05:09:26.665Z,-1.79
2022-12-17T05:12:11.945Z,-1.79
2022-12-17T05:14:59.006Z,-1.78
2022-12-17T05:17:44.430Z,-1.72
2022-12-17T05:20:29.848Z,-1.76
2022-12-17T05:23:15.337Z,-1.74
2022-12-17T05:26:00.581Z,-1.73
2022-12-17T05:28:45.944Z,-1.66
2022-12-17T05:31:32.875Z,-1.72
2022-12-17T05:34:19.227Z,-1.73
2022-12-17T05:37:04.557Z,-1.69
2022-12-17T05:39:49.900Z,-1.72
2022-12-17T05:42:35.391Z,-1.75
2022-12-17T05:45:21.036Z,-1.82
2022-12-17T05:48:12.928Z,-1.80
2022-12-17T05:50:58.436Z,-1.81
2022-12-17T05:53:43.926Z,-1.81
2022-12-17T05:56:29.215Z,-1.81
2022-12-17T05:59:14.601Z,-1.85
2022-12-17T06:01:59.975Z,-1.80
2022-12-17T06:04:47.012Z,-1.85
2022-12-17T06:07:37.863Z,-1.85
2022-12-17T06:10:23.899Z,-1.82
2022-12-17T06:13:14.637Z,-1.85
2022-12-17T06:15:59.916Z,-1.81
2022-12-17T06:18:45.657Z,-1.75
2022-12-17T06:21:32.593Z,-1.81
2022-12-17T06:24:17.783Z,-1.71
2022-12-17T06:27:03.107Z,-1.75
2022-12-17T06:29:48.263Z,-1.78
2022-12-17T06:32:33.788Z,-1.75
2022-12-17T06:35:18.744Z,-1.74
2022-12-17T06:38:05.417Z,-1.86
2022-12-17T06:40:50.902Z,-1.83
2022-12-17T06:43:36.513Z,-1.88
2022-12-17T06:46:22.053Z,-1.82
2022-12-17T06:49:07.711Z,-1.85
2022-12-17T06:51:53.155Z,-1.97
2022-12-17T06:54:40.849Z,-1.98
2022-12-17T06:57:25.974Z,-1.96
2022-12-17T07:00:11.306Z,-1.96
2022-12-17T07:02:56.911Z,-1.98
2022-12-17T07:05:42.080Z,-2.01
2022-12-17T07:08:27.558Z,-2.03
2022-12-17T07:11:14.432Z,-2.05
2022-12-17T07:13:59.804Z,-2.04
2022-12-17T07:16:45.309Z,-1.93
2022-12-17T07:19:30.793Z,-1.99
2022-12-17T07:22:16.197Z,-1.84
2022-12-17T07:25:01.840Z,-1.85
2022-12-17T07:27:48.531Z,-1.90
2022-12-17T07:30:36.727Z,-1.91
2022-12-17T07:33:24.857Z,-1.97
2022-12-17T07:36:11.722Z,-2.03
2022-12-17T07:38:57.025Z,-2.21
2022-12-17T07:41:42.388Z,-1.99
2022-12-17T07:44:29.416Z,-1.94
2022-12-17T07:47:14.937Z,-1.98
2022-12-17T07:50:00.260Z,-1.87
2022-12-17T07:52:45.936Z,-1.80
2022-12-17T07:55:31.023Z,-1.93
2022-12-17T07:58:17.588Z,-1.88
2022-12-17T08:01:04.400Z,-1.84
2022-12-17T08:03:52.071Z,-1.84
2022-12-17T08:06:37.952Z,-1.81
2022-12-17T08:09:23.637Z,-1.91
2022-12-17T08:12:09.033Z,-2.00
2022-12-17T08:14:54.888Z,-1.87
2022-12-17T08:17:41.753Z,-1.80
2022-12-17T08:20:28.859Z,-1.66
2022-12-17T08:23:19.991Z,-1.67
2022-12-17T08:26:05.284Z,-1.74
2022-12-17T08:28:52.404Z,-1.77
2022-12-17T08:31:38.331Z,-1.83
2022-12-17T08:34:25.430Z,-1.64
2022-12-17T08:37:11.192Z,-1.68
2022-12-17T08:39:56.633Z,-1.76
2022-12-17T08:42:42.044Z,-1.77
2022-12-17T08:45:28.359Z,-1.65
2022-12-17T08:48:21.339Z,-1.63
2022-12-17T08:51:08.347Z,-1.52
2022-12-17T08:53:54.197Z,-1.68
2022-12-17T08:56:39.769Z,-1.72
2022-12-17T08:59:25.001Z,-1.73
2022-12-17T09:02:10.672Z,-1.84
2022-12-17T09:04:56.426Z,-1.78
2022-12-17T09:07:42.931Z,-1.75
2022-12-17T09:10:28.279Z,-1.60
2022-12-17T09:13:13.750Z,-1.56
2022-12-17T09:15:59.033Z,-1.55
2022-12-17T09:18:45.074Z,-1.56
2022-12-17T09:21:30.309Z,-1.61
2022-12-17T09:24:16.850Z,-1.59
2022-12-17T09:27:02.273Z,-1.51
2022-12-17T09:29:49.826Z,-1.42
2022-12-17T09:32:35.162Z,-1.35
2022-12-17T09:35:20.518Z,-1.19
2022-12-17T09:38:11.107Z,-1.17
2022-12-17T09:40:59.297Z,-1.12
2022-12-17T09:43:50.629Z,-1.06
2022-12-17T09:46:41.956Z,-1.12
2022-12-17T09:49:36.667Z,-0.95
2022-12-17T09:52:44.145Z,-0.86
2022-12-17T09:55:39.893Z,-0.74
2022-12-17T09:58:37.137Z,-0.76
2022-12-17T10:01:23.928Z,-0.84
2022-12-17T10:04:09.663Z,-0.94
2022-12-17T10:06:56.191Z,-0.93
2022-12-17T10:09:42.553Z,-0.82
2022-12-17T10:12:33.753Z,-0.73
2022-12-17T10:15:21.032Z,-0.61
2022-12-17T10:18:08.366Z,-0.67
2022-12-17T10:20:59.417Z,-0.80
2022-12-17T10:23:47.037Z,-0.87
2022-12-17T10:26:36.410Z,-0.90
2022-12-17T10:29:23.812Z,-0.90
2022-12-17T10:32:10.721Z,-0.85
2022-12-17T10:35:03.310Z,-1.01
2022-12-17T10:37:52.951Z,-1.06
2022-12-17T10:40:44.423Z,-1.10
2022-12-17T10:43:48.207Z,-1.10
2022-12-17T10:46:45.098Z,-1.19
2022-12-17T10:49:35.241Z,-1.14
2022-12-17T10:52:35.925Z,-0.83
2022-12-17T10:55:23.978Z,-0.74
2022-12-17T10:58:12.793Z,-0.71
2022-12-17T11:01:02.957Z,-0.53
2022-12-17T11:04:04.198Z,-0.49
2022-12-17T11:06:53.838Z,-0.49
2022-12-17T11:09:53.581Z,-0.36
2022-12-17T11:12:44.824Z,-0.50
2022-12-17T11:15:38.322Z,-0.38
2022-12-17T11:18:25.582Z,-0.53
2022-12-17T11:21:25.654Z,-0.56
2022-12-17T11:24:22.057Z,-0.50
2022-12-17T11:27:11.781Z,-0.51
2022-12-17T11:29:57.280Z,-0.54
2022-12-17T11:32:56.784Z,-0.43
2022-12-17T11:35:48.939Z,-0.60
2022-12-17T11:38:43.375Z,-0.65
2022-12-17T11:41:49.838Z,-0.60
2022-12-17T11:44:49.427Z,-0.52
2022-12-17T11:47:45.886Z,-0.49
2022-12-17T11:50:41.270Z,-0.61
2022-12-17T11:53:49.062Z,-0.51
2022-12-17T11:56:43.748Z,-0.69
2022-12-17T11:59:41.736Z,-0.69
2022-12-17T12:02:39.271Z,-0.67
2022-12-17T12:05:40.840Z,-0.99
2022-12-17T12:08:34.739Z,-1.20
2022-12-17T12:11:32.100Z,-1.29
2022-12-17T12:14:28.088Z,-1.16
2022-12-17T12:17:32.720Z,-1.07
2022-12-17T12:20:26.920Z,-1.01
2022-12-17T12:23:20.043Z,-0.92
2022-12-17T12:26:21.020Z,-0.86
2022-12-17T12:29:13.435Z,-0.94
2022-12-17T12:32:09.860Z,-0.90
2022-12-17T12:34:57.553Z,-0.95
2022-12-17T12:37:42.965Z,-0.98
2022-12-17T12:40:39.706Z,-0.97
2022-12-17T12:43:36.580Z,-0.96
2022-12-17T12:46:31.157Z,-0.92
2022-12-17T12:49:26.669Z,-1.12
2022-12-17T12:52:14.482Z,-1.01
2022-12-17T12:55:14.388Z,-1.30
2022-12-17T12:58:02.886Z,-1.31
2022-12-17T13:00:54.247Z,-1.27
2022-12-17T13:03:46.863Z,-1.45
2022-12-17T13:06:41.684Z,-1.58
2022-12-17T13:09:22.007Z,-1.48
2022-12-17T13:11:57.557Z,-1.44
2022-12-17T13:14:29.589Z,-1.64
2022-12-17T13:17:02.662Z,-1.42
2022-12-17T13:19:40.704Z,-1.28
2022-12-17T13:22:28.579Z,-1.33
2022-12-17T13:24:58.659Z,-1.32
2022-12-17T13:27:32.003Z,-1.36
2022-12-17T13:30:12.737Z,-1.35
2022-12-17T13:32:49.197Z,-1.25
2022-12-17T13:35:28.630Z,-1.28
2022-12-17T13:38:17.690Z,-1.19
2022-12-17T13:40:50.796Z,-1.27
2022-12-17T13:43:21.109Z,-1.44
2022-12-17T13:45:49.680Z,-1.40
2022-12-17T13:48:25.788Z,-1.77
2022-12-17T13:50:59.786Z,-1.93
2022-12-17T13:53:30.166Z,-2.07
2022-12-17T13:56:00.748Z,-2.05
2022-12-17T13:58:30.291Z,-2.11
2022-12-17T14:01:11.473Z,-2.05
2022-12-17T14:04:05.397Z,-2.15
2022-12-17T14:06:36.034Z,-2.11
2022-12-17T14:09:08.610Z,-2.01
2022-12-17T14:11:56.507Z,-1.85
2022-12-17T14:14:31.318Z,-1.78
2022-12-17T14:17:01.700Z,-2.04
2022-12-17T14:19:32.113Z,-1.89
2022-12-17T14:22:01.503Z,-1.87
2022-12-17T14:24:31.312Z,-1.82
2022-12-17T14:27:01.180Z,-1.76
2022-12-17T14:29:31.342Z,-1.81
2022-12-17T14:32:01.542Z,-1.78
2022-12-17T14:34:30.104Z,-1.80
2022-12-17T14:37:00.483Z,-1.77
2022-12-17T14:39:32.048Z,-1.71
2022-12-17T14:42:28.720Z,-1.79
2022-12-17T14:45:01.459Z,-1.84
2022-12-17T14:47:31.384Z,-1.84
2022-12-17T14:50:02.821Z,-1.89
2022-12-17T14:52:42.402Z,-1.83
2022-12-17T14:55:26.098Z,-1.82
2022-12-17T14:58:08.700Z,-1.78
2022-12-17T15:00:39.563Z,-1.68
2022-12-17T15:03:07.893Z,-1.89
2022-12-17T15:05:36.740Z,-1.95
2022-12-17T15:08:05.787Z,-1.92
2022-12-17T15:10:36.843Z,-1.89
2022-12-17T15:13:09.696Z,-1.94
2022-12-17T15:15:37.811Z,-1.87
2022-12-17T15:18:05.970Z,-1.95
2022-12-17T15:20:33.889Z,-1.96
2022-12-17T15:23:02.649Z,-1.94
2022-12-17T15:25:30.717Z,-2.06
2022-12-17T15:28:00.152Z,-2.20
2022-12-17T15:30:28.116Z,-2.29
2022-12-17T15:32:56.166Z,-2.28
2022-12-17T15:35:25.849Z,-2.26
2022-12-17T15:37:53.983Z,-2.43
2022-12-17T15:40:23.079Z,-2.30
2022-12-17T15:43:08.369Z,-2.47
2022-12-17T15:45:37.740Z,-2.44
2022-12-17T15:48:06.324Z,-2.37
2022-12-17T15:50:34.608Z,-2.35
2022-12-17T15:53:02.960Z,-2.27
2022-12-17T15:55:31.092Z,-2.20
2022-12-17T15:57:59.669Z,-2.13
2022-12-17T16:00:27.778Z,-2.03
2022-12-17T16:02:57.314Z,-2.03
2022-12-17T16:05:25.774Z,-2.05
2022-12-17T16:07:53.690Z,-1.92
2022-12-17T16:10:21.840Z,-1.98
2022-12-17T16:12:49.924Z,-2.01
2022-12-17T16:15:18.011Z,-2.03
2022-12-17T16:17:46.041Z,-1.95
2022-12-17T16:20:18.053Z,-2.04
2022-12-17T16:22:46.397Z,-2.07
2022-12-17T16:25:14.496Z,-2.17
2022-12-17T16:27:42.488Z,-2.16
2022-12-17T16:30:11.519Z,-2.13
2022-12-17T16:32:42.793Z,-2.13
2022-12-17T16:35:10.977Z,-2.00
2022-12-17T16:37:40.408Z,-2.03
2022-12-17T16:40:09.828Z,-2.23
2022-12-17T16:42:39.193Z,-2.19
2022-12-17T16:45:09.014Z,-2.25
2022-12-17T16:47:36.840Z,-2.17
2022-12-17T16:50:05.122Z,-2.10
2022-12-17T16:52:33.185Z,-2.23
2022-12-17T16:55:02.486Z,-2.14
2022-12-17T16:57:32.919Z,-2.26
2022-12-17T17:00:01.014Z,-2.35
2022-12-17T17:02:29.164Z,-2.35
2022-12-17T17:04:57.123Z,-2.41
2022-12-17T17:07:25.165Z,-2.31
2022-12-17T17:09:53.010Z,-2.49
2022-12-17T17:12:22.471Z,-2.40
2022-12-17T17:14:53.420Z,-2.36
2022-12-17T17:17:54.044Z,-2.33
2022-12-17T17:20:12.402Z,-2.38
2022-12-17T17:22:40.513Z,-2.41
2022-12-17T17:25:09.445Z,-2.46
2022-12-17T17:27:38.770Z,-2.43
2022-12-17T17:30:07.930Z,-2.47
2022-12-17T17:32:36.220Z,-2.34
2022-12-17T17:35:05.807Z,-2.31
2022-12-17T17:37:33.883Z,-2.53
2022-12-17T17:40:04.707Z,-2.61
2022-12-17T17:42:32.707Z,-2.48
2022-12-17T17:45:03.370Z,-2.54
2022-12-17T17:47:31.797Z,-2.51
2022-12-17T17:49:59.744Z,-2.58
2022-12-17T17:52:27.759Z,-2.52
2022-12-17T17:55:04.975Z,-2.60
2022-12-17T17:57:32.909Z,-2.46
2022-12-17T18:00:05.139Z,-2.57
2022-12-17T18:02:33.268Z,-2.67
2022-12-17T18:05:01.774Z,-2.71
2022-12-17T18:07:29.833Z,-2.74
2022-12-17T18:09:59.636Z,-2.62
2022-12-17T18:12:45.210Z,-2.52
2022-12-17T18:15:16.329Z,-2.61
2022-12-17T18:17:45.383Z,-2.60
2022-12-17T18:20:13.515Z,-2.63
2022-12-17T18:22:41.702Z,-2.58
2022-12-17T18:25:10.501Z,-2.65
2022-12-17T18:27:40.295Z,-2.56
2022-12-17T18:30:09.230Z,-2.62
2022-12-17T18:32:38.988Z,-2.63
2022-12-17T18:35:07.985Z,-2.58
2022-12-17T18:37:37.610Z,-2.64
2022-12-17T18:40:06.663Z,-2.66
2022-12-17T18:42:52.471Z,-2.70
2022-12-17T18:45:20.416Z,-2.63
2022-12-17T18:47:51.135Z,-2.67
2022-12-17T18:50:19.204Z,-2.75
2022-12-17T18:52:47.142Z,-2.69
2022-12-17T18:55:15.281Z,-2.73
2022-12-17T18:57:43.466Z,-2.71
2022-12-17T19:00:12.690Z,-2.77
2022-12-17T19:02:40.832Z,-2.78
2022-12-17T19:05:11.410Z,-2.77
2022-12-17T19:07:42.037Z,-2.81
2022-12-17T19:10:10.930Z,-2.92
2022-12-17T19:12:39.262Z,-2.90
2022-12-17T19:15:16.276Z,-2.93
2022-12-17T19:17:44.357Z,-2.89
2022-12-17T19:20:13.756Z,-3.03
2022-12-17T19:22:41.819Z,-2.96
2022-12-17T19:25:12.363Z,-3.06
2022-12-17T19:27:40.599Z,-3.15
2022-12-17T19:30:10.318Z,-3.14
2022-12-17T19:32:38.211Z,-3.08
2022-12-17T19:35:06.864Z,-3.04
2022-12-17T19:37:36.202Z,-3.07
2022-12-17T19:40:04.158Z,-3.10
2022-12-17T19:42:37.407Z,-3.10
2022-12-17T19:45:06.348Z,-3.08
2022-12-17T19:47:34.294Z,-3.06
2022-12-17T19:50:02.291Z,-3.20
2022-12-17T19:52:30.801Z,-3.06
2022-12-17T19:55:00.091Z,-3.04
2022-12-17T19:57:28.113Z,-3.01
2022-12-17T19:59:56.086Z,-3.05
2022-12-17T20:02:32.245Z,-3.05
2022-12-17T20:05:00.584Z,-3.17
2022-12-17T20:07:28.452Z,-3.00
2022-12-17T20:09:56.300Z,-3.12
2022-12-17T20:12:25.788Z,-3.06
2022-12-17T20:14:53.670Z,-3.18
2022-12-17T20:17:21.566Z,-3.37
2022-12-17T20:19:52.239Z,-3.29
2022-12-17T20:22:22.400Z,-3.29
2022-12-17T20:24:53.204Z,-3.35
2022-12-17T20:27:30.124Z,-3.36
2022-12-17T20:29:58.172Z,-3.48
2022-12-17T20:32:26.162Z,-3.38
2022-12-17T20:34:54.194Z,-3.35
2022-12-17T20:37:22.381Z,-3.31
2022-12-17T20:39:50.528Z,-3.31
2022-12-17T20:42:18.853Z,-3.58
2022-12-17T20:44:53.255Z,-3.59
2022-12-17T20:47:21.619Z,-3.54
2022-12-17T20:49:49.577Z,-3.57
2022-12-17T20:52:17.599Z,-3.66
2022-12-17T20:54:45.504Z,-3.54
2022-12-17T20:57:15.503Z,-3.57
2022-12-17T20:59:43.454Z,-3.83
2022-12-17T21:02:12.939Z,-3.75
2022-12-17T21:04:40.987Z,-3.88
2022-12-17T21:07:08.797Z,-3.68
2022-12-17T21:09:36.944Z,-3.76
2022-12-17T21:12:07.621Z,-3.86
2022-12-17T21:14:36.068Z,-3.81
2022-12-17T21:17:05.095Z,-3.86
2022-12-17T21:19:34.623Z,-3.90
2022-12-17T21:22:02.469Z,-3.86
2022-12-17T21:24:30.489Z,-3.87
2022-12-17T21:26:58.706Z,-3.83
2022-12-17T21:29:26.554Z,-3.82
2022-12-17T21:31:54.534Z,-3.88
2022-12-17T21:34:25.163Z,-3.84
2022-12-17T21:36:54.563Z,-3.93
2022-12-17T21:39:22.934Z,-3.96
2022-12-17T21:42:05.158Z,-3.81
2022-12-17T21:44:33.219Z,-3.75
2022-12-17T21:47:02.040Z,-3.69
2022-12-17T21:49:30.038Z,-3.69
2022-12-17T21:52:00.629Z,-3.62
2022-12-17T21:54:28.787Z,-3.75
2022-12-17T21:56:56.702Z,-3.81
2022-12-17T21:59:24.944Z,-3.80
2022-12-17T22:01:53.960Z,-3.71
2022-12-17T22:04:22.238Z,-3.73
2022-12-17T22:06:51.858Z,-3.64
2022-12-17T22:09:44.400Z,-3.99
2022-12-17T22:12:39.291Z,-3.80
2022-12-17T22:15:10.996Z,-3.74
2022-12-17T22:17:40.180Z,-3.78
2022-12-17T22:20:09.562Z,-3.82
2022-12-17T22:22:37.664Z,-3.81
2022-12-17T22:25:08.482Z,-3.76
2022-12-17T22:27:39.477Z,-3.92
2022-12-17T22:30:26.483Z,-3.96
2022-12-17T22:33:00.650Z,-3.99
2022-12-17T22:37:09.333Z,-3.91
2022-12-17T22:43:11.651Z,-3.83
2022-12-17T22:44:37.448Z,-3.94
2022-12-17T22:44:51.175Z,-4.19
2022-12-17T22:47:08.631Z,-4.28
2022-12-17T22:49:36.727Z,-4.15
2022-12-17T22:52:04.830Z,-4.08
2022-12-17T22:54:33.759Z,-4.09
2022-12-17T22:57:34.627Z,-4.20
2022-12-17T22:59:51.732Z,-4.13
2022-12-17T23:02:23.474Z,-4.22
2022-12-17T23:04:51.391Z,-4.06
2022-12-17T23:07:19.250Z,-4.17
2022-12-17T23:09:47.068Z,-4.07
2022-12-17T23:12:33.617Z,-4.02
2022-12-17T23:15:01.676Z,-4.16
2022-12-17T23:17:29.564Z,-4.25
2022-12-17T23:19:57.437Z,-4.29
2022-12-17T23:22:25.372Z,-4.16
2022-12-17T23:24:53.309Z,-4.18
2022-12-17T23:27:22.508Z,-4.03
2022-12-17T23:29:50.594Z,-4.10
2022-12-17T23:32:18.391Z,-4.08
2022-12-17T23:34:46.224Z,-4.04
2022-12-17T23:37:14.119Z,-4.07
2022-12-17T23:39:41.917Z,-4.23
2022-12-17T23:42:09.702Z,-4.20
2022-12-17T23:44:38.893Z,-4.09
2022-12-17T23:47:06.750Z,-4.21
2022-12-17T23:49:34.744Z,-4.22
2022-12-17T23:52:02.666Z,-4.24
2022-12-17T23:54:30.643Z,-4.37
2022-12-17T23:56:58.498Z,-4.32
2022-12-17T23:59:26.370Z,-4.31
